createdAt,value
2022-10-24T00:01:02.376Z,11.08
2022-10-24T00:06:12.591Z,11.06
2022-10-24T00:11:22.480Z,11.07
2022-10-24T00:16:29.934Z,11.06
2022-10-24T00:21:37.130Z,11.01
2022-10-24T00:26:44.829Z,11.03
2022-10-24T00:31:51.970Z,11.00
2022-10-24T00:36:59.054Z,11.02
2022-10-24T00:42:06.927Z,11.02
2022-10-24T00:47:18.143Z,11.01
2022-10-24T00:52:29.457Z,10.99
2022-10-24T00:57:42.413Z,10.96
2022-10-24T01:02:50.370Z,10.93
2022-10-24T01:08:11.208Z,10.92
2022-10-24T01:13:28.928Z,10.89
2022-10-24T01:18:40.797Z,10.89
2022-10-24T01:23:54.723Z,10.90
2022-10-24T01:29:10.009Z,10.90
2022-10-24T01:34:26.086Z,10.90
2022-10-24T01:39:38.636Z,10.91
2022-10-24T01:44:51.027Z,10.91
2022-10-24T01:50:02.506Z,10.93
2022-10-24T01:55:11.445Z,10.94
2022-10-24T02:00:23.279Z,10.94
2022-10-24T02:05:34.289Z,10.98
2022-10-24T02:10:46.516Z,10.99
2022-10-24T02:15:57.287Z,11.02
2022-10-24T02:21:17.731Z,11.05
2022-10-24T02:26:33.033Z,11.07
2022-10-24T02:31:44.602Z,11.10
2022-10-24T02:36:55.147Z,11.13
2022-10-24T02:42:04.348Z,11.16
2022-10-24T02:47:14.571Z,11.18
2022-10-24T02:52:21.566Z,11.19
2022-10-24T02:57:28.860Z,11.23
2022-10-24T03:02:36.114Z,11.25
2022-10-24T03:07:43.306Z,11.29
2022-10-24T03:12:50.384Z,11.31
2022-10-24T03:17:57.706Z,11.34
2022-10-24T03:23:04.692Z,11.36
2022-10-24T03:28:12.126Z,11.39
2022-10-24T03:33:19.651Z,11.41
2022-10-24T03:38:27.374Z,11.44
2022-10-24T03:43:34.694Z,11.46
2022-10-24T03:48:41.523Z,11.47
2022-10-24T03:53:48.929Z,11.50
2022-10-24T03:58:55.947Z,11.55
2022-10-24T04:04:03.135Z,11.58
2022-10-24T04:09:10.367Z,11.59
2022-10-24T04:14:17.760Z,11.61
2022-10-24T04:19:24.931Z,11.62
2022-10-24T04:24:32.244Z,11.61
2022-10-24T04:29:39.648Z,11.63
2022-10-24T04:34:47.127Z,11.64
2022-10-24T04:39:55.483Z,11.65
2022-10-24T04:45:02.928Z,11.66
2022-10-24T04:50:12.138Z,11.65
2022-10-24T04:55:20.233Z,11.67
2022-10-24T05:00:28.236Z,11.69
2022-10-24T05:05:35.918Z,11.69
2022-10-24T05:10:43.010Z,11.70
2022-10-24T05:15:50.069Z,11.72
2022-10-24T05:21:00.119Z,11.71
2022-10-24T05:26:07.747Z,11.72
2022-10-24T05:31:15.359Z,11.74
2022-10-24T05:36:22.745Z,11.72
2022-10-24T05:41:30.644Z,11.74
2022-10-24T05:46:37.991Z,11.76
2022-10-24T05:51:45.206Z,11.77
2022-10-24T05:56:52.582Z,11.77
2022-10-24T06:01:59.906Z,11.79
2022-10-24T06:07:07.382Z,11.80
2022-10-24T06:12:15.434Z,11.80
2022-10-24T06:17:22.733Z,11.80
2022-10-24T06:22:30.890Z,11.83
2022-10-24T06:27:37.928Z,11.84
2022-10-24T06:32:46.311Z,11.85
2022-10-24T06:37:54.184Z,11.86
2022-10-24T06:43:02.851Z,11.86
2022-10-24T06:48:11.201Z,11.86
2022-10-24T06:58:34.486Z,11.87
2022-10-24T07:03:41.972Z,11.87
2022-10-24T07:08:50.008Z,11.89
2022-10-24T07:14:00.778Z,11.90
2022-10-24T07:19:09.949Z,11.89
2022-10-24T07:24:17.654Z,11.91
2022-10-24T07:29:25.055Z,11.91
2022-10-24T07:34:32.786Z,11.93
2022-10-24T07:39:40.293Z,11.93
2022-10-24T07:44:48.080Z,11.92
2022-10-24T07:49:56.997Z,11.89
2022-10-24T07:55:04.548Z,11.91
2022-10-24T08:00:14.676Z,11.93
2022-10-24T08:05:23.135Z,11.96
2022-10-24T08:10:30.390Z,11.98
2022-10-24T08:15:38.187Z,11.98
2022-10-24T08:20:45.598Z,11.99
2022-10-24T08:25:52.711Z,12.01
2022-10-24T08:31:04.787Z,12.02
2022-10-24T08:36:29.437Z,12.04
2022-10-24T08:41:41.481Z,12.05
2022-10-24T08:46:53.509Z,12.08
2022-10-24T08:52:03.559Z,12.10
2022-10-24T08:57:17.824Z,12.13
2022-10-24T09:02:28.231Z,12.15
2022-10-24T09:07:35.831Z,12.19
2022-10-24T09:12:43.347Z,12.21
2022-10-24T09:17:51.619Z,12.23
2022-10-24T09:23:03.635Z,12.27
2022-10-24T09:28:08.951Z,12.32
2022-10-24T09:33:27.778Z,12.36
2022-10-24T09:38:37.886Z,12.41
2022-10-24T09:43:53.686Z,12.46
2022-10-24T09:49:03.577Z,12.52
2022-10-24T09:54:28.136Z,12.57
2022-10-24T09:59:44.424Z,12.64
2022-10-24T10:05:11.608Z,12.68
2022-10-24T10:10:33.325Z,12.75
2022-10-24T10:15:46.647Z,12.79
2022-10-24T10:21:08.623Z,12.84
2022-10-24T10:26:25.171Z,12.86
2022-10-24T10:31:41.873Z,12.90
2022-10-24T10:37:01.342Z,12.94
2022-10-24T10:42:14.939Z,12.97
2022-10-24T10:47:35.824Z,13.00
2022-10-24T10:52:49.565Z,13.03
2022-10-24T10:58:11.081Z,13.04
2022-10-24T11:03:35.993Z,13.09
2022-10-24T11:09:08.323Z,13.13
2022-10-24T11:14:27.102Z,13.14
2022-10-24T11:19:43.124Z,13.14
2022-10-24T11:24:56.754Z,13.19
2022-10-24T11:30:13.853Z,13.23
2022-10-24T11:35:30.070Z,13.25
2022-10-24T11:40:39.282Z,13.27
2022-10-24T11:45:53.205Z,13.30
2022-10-24T11:51:10.126Z,13.32
2022-10-24T11:56:23.592Z,13.37
2022-10-24T12:01:54.809Z,13.37
2022-10-24T12:07:38.793Z,13.42
2022-10-24T12:13:12.577Z,13.44
2022-10-24T12:18:30.296Z,13.47
2022-10-24T12:23:38.071Z,13.48
2022-10-24T12:28:55.216Z,13.49
2022-10-24T12:34:48.917Z,13.48
2022-10-24T12:39:59.145Z,13.48
2022-10-24T12:45:32.158Z,13.48
2022-10-24T12:51:06.315Z,13.49
2022-10-24T13:01:35.071Z,13.52
2022-10-24T13:06:55.294Z,13.57
2022-10-24T13:12:18.222Z,13.62
2022-10-24T13:17:35.794Z,13.67
2022-10-24T13:22:43.642Z,13.67
2022-10-24T13:28:32.269Z,13.68
2022-10-24T13:33:47.954Z,13.68
2022-10-24T13:38:58.102Z,13.68
2022-10-24T13:44:09.401Z,13.67
2022-10-24T13:49:24.042Z,13.67
2022-10-24T13:54:36.224Z,13.67
2022-10-24T13:59:43.094Z,13.67
2022-10-24T14:04:56.074Z,13.67
2022-10-24T14:10:09.701Z,13.65
2022-10-24T14:15:23.341Z,13.66
2022-10-24T14:20:32.915Z,13.65
2022-10-24T14:25:41.375Z,13.65
2022-10-24T14:30:57.344Z,13.64
2022-10-24T14:36:06.064Z,13.63
2022-10-24T14:41:13.495Z,13.63
2022-10-24T14:46:38.699Z,13.62
2022-10-24T14:51:45.709Z,13.59
2022-10-24T14:56:54.845Z,13.56
2022-10-24T15:02:06.511Z,13.55
2022-10-24T15:07:31.964Z,13.51
2022-10-24T15:12:44.164Z,13.49
2022-10-24T15:17:52.187Z,13.48
2022-10-24T15:23:01.083Z,13.46
2022-10-24T15:28:09.060Z,13.43
2022-10-24T15:33:16.674Z,13.42
2022-10-24T15:38:23.545Z,13.40
2022-10-24T15:43:31.837Z,13.37
2022-10-24T15:48:39.658Z,13.36
2022-10-24T15:53:47.247Z,13.34
2022-10-24T15:58:56.577Z,13.32
2022-10-24T16:04:05.068Z,13.31
2022-10-24T16:09:18.296Z,13.30
2022-10-24T16:14:26.660Z,13.27
2022-10-24T16:19:34.223Z,13.27
2022-10-24T16:24:41.350Z,13.26
2022-10-24T16:29:48.909Z,13.25
2022-10-24T16:34:58.031Z,13.23
2022-10-24T16:40:06.274Z,13.19
2022-10-24T16:45:14.373Z,13.21
2022-10-24T16:50:26.596Z,13.19
2022-10-24T16:55:32.087Z,13.19
2022-10-24T17:00:39.596Z,13.17
2022-10-24T17:05:49.775Z,13.16
2022-10-24T17:10:57.597Z,13.17
2022-10-24T17:16:09.400Z,13.16
2022-10-24T17:21:17.834Z,13.16
2022-10-24T17:26:25.353Z,13.15
2022-10-24T17:31:32.982Z,13.10
2022-10-24T17:36:41.916Z,13.15
2022-10-24T17:41:49.618Z,13.15
2022-10-24T17:46:58.493Z,13.15
2022-10-24T17:52:06.138Z,13.15
2022-10-24T17:57:13.319Z,13.15
2022-10-24T18:02:20.834Z,13.16
2022-10-24T18:07:28.549Z,13.16
2022-10-24T18:12:38.577Z,13.16
2022-10-24T18:17:46.102Z,13.14
2022-10-24T18:22:53.498Z,13.17
2022-10-24T18:28:00.616Z,13.17
2022-10-24T18:33:07.696Z,13.18
2022-10-24T18:38:19.192Z,13.19
2022-10-24T18:43:27.003Z,13.19
2022-10-24T18:48:35.568Z,13.20
2022-10-24T18:53:46.613Z,13.20
2022-10-24T18:58:57.948Z,13.20
2022-10-24T19:04:14.618Z,13.21
2022-10-24T19:09:24.075Z,13.22
2022-10-24T19:14:32.133Z,13.22
2022-10-24T19:19:39.949Z,13.22
2022-10-24T19:24:47.069Z,13.22
2022-10-24T19:29:53.976Z,13.23
2022-10-24T19:35:01.054Z,13.23
2022-10-24T19:40:11.115Z,13.24
2022-10-24T19:45:21.436Z,13.24
2022-10-24T19:50:32.385Z,13.23
2022-10-24T19:55:41.133Z,13.23
2022-10-24T20:00:48.367Z,13.23
2022-10-24T20:06:00.015Z,13.27
2022-10-24T20:11:08.295Z,13.30
2022-10-24T20:16:15.859Z,13.30
2022-10-24T20:21:23.404Z,13.31
2022-10-24T20:26:31.227Z,13.29
2022-10-24T20:31:40.255Z,13.28
2022-10-24T20:36:50.410Z,13.22
2022-10-24T20:41:58.218Z,13.18
2022-10-24T20:47:06.001Z,13.13
2022-10-24T20:52:13.951Z,13.08
2022-10-24T20:57:21.895Z,13.02
2022-10-24T21:02:56.309Z,12.98
2022-10-24T21:08:04.836Z,12.99
2022-10-24T21:13:12.692Z,13.08
2022-10-24T21:18:20.502Z,13.07
2022-10-24T21:23:28.706Z,13.03
2022-10-24T21:28:37.560Z,12.99
2022-10-24T21:33:45.920Z,12.96
2022-10-24T21:38:56.821Z,12.94
2022-10-24T21:44:04.829Z,12.89
2022-10-24T21:49:12.741Z,12.88
2022-10-24T21:54:23.480Z,12.86
2022-10-24T21:59:31.378Z,12.84
2022-10-24T22:04:38.572Z,12.85
2022-10-24T22:09:46.593Z,12.86
2022-10-24T22:14:54.416Z,12.85
2022-10-24T22:20:02.327Z,12.84
2022-10-24T22:25:11.328Z,12.84
2022-10-24T22:30:19.561Z,12.83
2022-10-24T22:35:28.203Z,12.82
2022-10-24T22:40:37.255Z,12.83
2022-10-24T22:45:50.907Z,12.83
2022-10-24T22:50:59.791Z,12.81
2022-10-24T22:56:17.674Z,12.79
2022-10-24T23:01:36.816Z,12.78
2022-10-24T23:06:50.320Z,12.79
